Time;durP1;ratioP1;P1;durP2;ratioP2;P2;SDS_P1;SDS_P2;PMS_P1;PMS_P2;Temp;Humidity;BMP_temperature;BMP_pressure;BME280_temperature;BME280_humidity;BME280_pressure;Samples;Min_cycle;Max_cycle;Signal;HPM_P1;HPM_P2
2023/09/17 00:00:13;;;;;;;5.65;4.90;;;23.70;93.50;;;;;;4824102;29;20038;-80
2023/09/17 00:02:38;;;;;;;5.70;5.07;;;23.80;93.50;;;;;;4827097;29;20392;-80
2023/09/17 00:05:05;;;;;;;5.38;4.40;;;23.80;93.40;;;;;;4826759;29;20034;-80
2023/09/17 00:07:30;;;;;;;7.55;5.97;;;23.80;93.40;;;;;;4833368;29;20041;-80
2023/09/17 00:09:56;;;;;;;6.82;5.82;;;23.80;93.40;;;;;;4827798;29;20038;-80
2023/09/17 00:12:22;;;;;;;6.50;5.80;;;23.80;93.30;;;;;;4835292;29;20077;-79
2023/09/17 00:14:48;;;;;;;7.30;5.47;;;23.80;93.30;;;;;;4826520;29;20046;-79
2023/09/17 00:17:22;;;;;;;7.78;6.10;;;23.80;93.40;;;;;;4825711;29;20030;-79
2023/09/17 00:19:47;;;;;;;5.53;4.80;;;23.80;93.40;;;;;;4834582;29;20027;-82
2023/09/17 00:22:15;;;;;;;6.13;5.15;;;23.80;93.40;;;;;;4822374;29;20049;-82
2023/09/17 00:24:41;;;;;;;10.45;5.95;;;23.80;93.40;;;;;;4829150;29;20532;-82
2023/09/17 00:27:08;;;;;;;8.45;5.60;;;23.80;93.40;;;;;;4826303;29;20116;-82
2023/09/17 00:29:34;;;;;;;6.60;5.68;;;23.80;93.30;;;;;;4833332;29;20046;-80
2023/09/17 00:31:59;;;;;;;7.38;6.05;;;23.80;93.30;;;;;;4827703;29;20045;-81
2023/09/17 00:34:25;;;;;;;5.65;5.00;;;23.80;93.30;;;;;;4834343;29;20099;-80
2023/09/17 00:36:52;;;;;;;5.75;5.07;;;23.90;93.30;;;;;;4843633;29;20113;-80
2023/09/17 00:39:18;;;;;;;7.18;5.43;;;23.80;93.30;;;;;;4835813;29;20083;-81
2023/09/17 00:41:43;;;;;;;5.90;5.22;;;23.80;93.40;;;;;;4835623;29;20418;-81
2023/09/17 00:44:09;;;;;;;7.00;6.30;;;23.80;93.40;;;;;;4827185;29;20043;-80
2023/09/17 00:46:36;;;;;;;9.02;6.72;;;23.80;93.40;;;;;;4830299;29;20034;-80
2023/09/17 00:49:03;;;;;;;7.55;6.47;;;23.80;93.40;;;;;;4832413;29;20066;-80
2023/09/17 00:51:29;;;;;;;7.82;6.07;;;23.80;93.40;;;;;;4837478;29;20038;-80
2023/09/17 00:53:57;;;;;;;7.65;5.63;;;23.70;93.40;;;;;;4834075;29;20094;-80
2023/09/17 00:56:25;;;;;;;8.25;5.75;;;23.70;93.70;;;;;;4825209;29;20042;-80
2023/09/17 00:58:51;;;;;;;7.93;5.68;;;23.70;93.50;;;;;;4840939;29;20049;-80
2023/09/17 01:01:19;;;;;;;8.60;6.15;;;23.70;93.50;;;;;;4834125;29;20026;-81
2023/09/17 01:03:45;;;;;;;9.05;6.90;;;23.70;93.50;;;;;;4829260;29;20055;-81
2023/09/17 01:06:14;;;;;;;9.00;6.75;;;23.70;93.50;;;;;;4830359;29;20046;-81
2023/09/17 01:08:40;;;;;;;9.23;6.95;;;23.80;93.50;;;;;;4828358;29;20106;-79
2023/09/17 01:11:09;;;;;;;10.65;7.07;;;23.80;93.50;;;;;;4825738;29;20088;-80
2023/09/17 01:13:42;;;;;;;9.63;7.25;;;23.70;93.50;;;;;;4828480;29;20039;-81
2023/09/17 01:16:09;;;;;;;9.85;7.30;;;23.70;93.50;;;;;;4830523;29;20037;-80
2023/09/17 01:18:35;;;;;;;9.98;7.25;;;23.70;93.50;;;;;;4836648;29;20035;-80
2023/09/17 01:21:16;;;;;;;8.85;7.05;;;23.70;93.50;;;;;;4837714;29;20490;-80
2023/09/17 01:23:54;;;;;;;8.77;7.00;;;23.70;93.50;;;;;;4827363;29;20069;-80
2023/09/17 01:26:26;;;;;;;7.53;6.68;;;23.70;93.50;;;;;;4835127;29;20142;-80
2023/09/17 01:28:54;;;;;;;9.68;6.78;;;23.70;93.50;;;;;;4830878;29;20050;-80
2023/09/17 01:31:21;;;;;;;8.73;6.20;;;23.70;93.50;;;;;;4821656;29;20118;-81
2023/09/17 01:33:47;;;;;;;8.05;6.82;;;23.70;93.50;;;;;;4839117;29;20034;-81
2023/09/17 01:36:30;;;;;;;8.15;7.05;;;23.70;93.50;;;;;;4838482;29;20042;-81
2023/09/17 01:39:04;;;;;;;8.98;7.28;;;23.70;93.50;;;;;;4840936;29;20117;-81
2023/09/17 01:41:33;;;;;;;7.70;6.88;;;23.70;93.50;;;;;;4826040;29;20499;-81
2023/09/17 01:44:00;;;;;;;8.38;7.25;;;23.70;93.50;;;;;;4825307;29;20031;-81
2023/09/17 01:46:26;;;;;;;8.95;7.18;;;23.70;93.50;;;;;;4826833;29;20484;-81
2023/09/17 01:48:53;;;;;;;10.43;7.47;;;23.70;93.50;;;;;;4825932;29;20046;-80
2023/09/17 01:51:20;;;;;;;10.63;8.45;;;23.60;93.50;;;;;;4830564;29;20057;-81
2023/09/17 01:53:46;;;;;;;9.55;7.32;;;23.60;93.60;;;;;;4831894;29;20054;-80
2023/09/17 01:56:13;;;;;;;8.63;7.32;;;23.60;93.60;;;;;;4826862;29;20038;-81
2023/09/17 01:58:38;;;;;;;11.18;7.20;;;23.60;93.60;;;;;;4834363;29;20360;-80
2023/09/17 02:01:04;;;;;;;10.50;7.25;;;23.60;93.70;;;;;;4825576;29;20131;-80
2023/09/17 02:03:30;;;;;;;10.60;8.55;;;23.60;93.60;;;;;;4829606;29;20050;-81
2023/09/17 02:05:57;;;;;;;12.20;9.30;;;23.60;93.60;;;;;;4823602;29;20352;-79
2023/09/17 02:08:22;;;;;;;10.43;8.43;;;23.60;93.60;;;;;;4829321;29;20035;-79
2023/09/17 02:10:48;;;;;;;11.07;8.60;;;23.60;93.60;;;;;;4829252;29;20083;-81
2023/09/17 02:13:14;;;;;;;10.65;8.40;;;23.60;93.60;;;;;;4827792;29;20036;-80
2023/09/17 02:15:40;;;;;;;11.40;8.75;;;23.60;93.60;;;;;;4826215;29;20026;-80
2023/09/17 02:18:05;;;;;;;10.18;8.63;;;23.60;93.60;;;;;;4825105;29;20092;-80
2023/09/17 02:20:31;;;;;;;10.93;8.77;;;23.60;93.60;;;;;;4828135;29;20030;-79
2023/09/17 02:22:57;;;;;;;10.48;8.77;;;23.60;93.60;;;;;;4829129;29;20050;-79
2023/09/17 02:25:23;;;;;;;8.95;7.95;;;23.60;93.60;;;;;;4829554;29;20049;-80
2023/09/17 02:27:48;;;;;;;11.93;8.90;;;23.60;93.60;;;;;;4839074;29;20038;-79
2023/09/17 02:30:14;;;;;;;10.85;8.77;;;23.60;93.60;;;;;;4832569;29;20198;-79
2023/09/17 02:32:41;;;;;;;9.88;8.13;;;23.50;93.60;;;;;;4830152;29;20552;-83
2023/09/17 02:35:07;;;;;;;12.13;9.27;;;23.50;93.60;;;;;;4828422;29;20510;-83
2023/09/17 02:37:33;;;;;;;13.65;9.90;;;23.60;93.60;;;;;;4835172;29;20116;-84
2023/09/17 02:39:59;;;;;;;11.15;9.90;;;23.50;93.60;;;;;;4839341;29;20098;-82
2023/09/17 02:42:25;;;;;;;11.15;9.38;;;23.50;93.70;;;;;;4835739;29;20058;-83
2023/09/17 02:44:51;;;;;;;11.63;9.27;;;23.50;93.70;;;;;;4840283;29;20546;-83
2023/09/17 02:47:16;;;;;;;13.77;10.35;;;23.40;93.70;;;;;;4837254;29;20085;-82
2023/09/17 02:49:42;;;;;;;11.93;9.93;;;23.50;93.70;;;;;;4829676;29;20027;-82
2023/09/17 02:52:08;;;;;;;12.35;9.85;;;23.50;93.70;;;;;;4830749;29;20519;-82
2023/09/17 02:54:34;;;;;;;13.63;10.75;;;23.50;93.70;;;;;;4825153;29;20068;-82
2023/09/17 02:57:00;;;;;;;13.10;10.15;;;23.50;93.70;;;;;;4836934;29;20046;-82
2023/09/17 02:59:25;;;;;;;11.68;10.02;;;23.50;93.70;;;;;;4828116;29;20472;-83
2023/09/17 03:01:51;;;;;;;12.02;10.80;;;23.40;93.90;;;;;;4830356;29;20035;-82
2023/09/17 03:04:17;;;;;;;14.10;10.77;;;23.40;93.70;;;;;;4825339;29;20493;-82
2023/09/17 03:06:43;;;;;;;12.98;10.85;;;23.40;93.70;;;;;;4824313;29;20505;-82
2023/09/17 03:09:11;;;;;;;15.38;10.65;;;23.40;93.70;;;;;;4827690;29;20569;-81
2023/09/17 03:11:39;;;;;;;13.52;11.40;;;23.40;93.70;;;;;;4829129;29;20078;-82
2023/09/17 03:14:05;;;;;;;12.77;11.30;;;23.40;93.70;;;;;;4817974;29;20031;-82
2023/09/17 03:16:31;;;;;;;13.02;10.98;;;23.40;93.80;;;;;;4819236;29;20079;-80
2023/09/17 03:18:58;;;;;;;15.27;12.13;;;23.40;93.80;;;;;;4834359;29;20054;-82
2023/09/17 03:21:24;;;;;;;14.55;11.93;;;23.40;93.90;;;;;;4832508;29;20052;-81
2023/09/17 03:23:49;;;;;;;16.00;12.02;;;23.40;93.80;;;;;;4826195;29;20104;-81
2023/09/17 03:26:15;;;;;;;16.33;12.82;;;23.30;93.80;;;;;;4828858;29;20028;-82
2023/09/17 03:28:41;;;;;;;16.25;11.75;;;23.30;93.80;;;;;;4838868;29;20038;-83
2023/09/17 03:31:07;;;;;;;15.73;11.10;;;23.30;93.80;;;;;;4823581;29;20042;-81
2023/09/17 03:33:32;;;;;;;15.85;12.45;;;23.30;93.80;;;;;;4824621;29;20138;-82
2023/09/17 03:35:59;;;;;;;15.48;11.93;;;23.30;93.80;;;;;;4828394;29;20459;-82
2023/09/17 03:38:24;;;;;;;15.50;12.63;;;23.30;93.80;;;;;;4839963;29;20384;-82
2023/09/17 03:40:50;;;;;;;14.73;11.50;;;23.30;93.80;;;;;;4829937;29;20037;-80
2023/09/17 03:43:16;;;;;;;17.63;12.57;;;23.30;93.80;;;;;;4823186;29;20042;-82
2023/09/17 03:45:41;;;;;;;17.10;12.80;;;23.30;93.80;;;;;;4831464;29;20030;-81
2023/09/17 03:48:08;;;;;;;18.08;12.70;;;23.30;93.80;;;;;;4829780;29;20042;-81
2023/09/17 03:50:39;;;;;;;13.38;11.45;;;23.30;93.80;;;;;;4832558;29;20117;-82
2023/09/17 03:53:06;;;;;;;23.30;13.18;;;23.30;93.70;;;;;;4828961;29;20050;-81
2023/09/17 03:55:33;;;;;;;15.35;12.93;;;23.30;93.70;;;;;;4827290;29;20179;-81
2023/09/17 03:57:59;;;;;;;15.75;12.15;;;23.30;93.70;;;;;;4834711;29;20038;-82
2023/09/17 04:00:25;;;;;;;16.90;12.57;;;23.30;93.70;;;;;;4833370;29;20038;-82
2023/09/17 04:02:52;;;;;;;16.20;13.05;;;23.30;93.70;;;;;;4835765;29;20144;-82
2023/09/17 04:05:21;;;;;;;14.18;12.35;;;23.30;93.70;;;;;;4829970;29;20383;-82
2023/09/17 04:07:47;;;;;;;15.05;12.38;;;23.30;93.70;;;;;;4824663;29;20027;-82
2023/09/17 04:10:14;;;;;;;14.85;11.45;;;23.30;93.70;;;;;;4829846;29;20041;-82
2023/09/17 04:12:41;;;;;;;15.10;11.88;;;23.30;93.70;;;;;;4829152;29;20356;-82
2023/09/17 04:15:27;;;;;;;13.77;11.00;;;23.20;93.70;;;;;;4829243;29;20044;-81
2023/09/17 04:17:53;;;;;;;14.75;12.63;;;23.20;93.70;;;;;;4822360;29;20041;-80
2023/09/17 04:20:20;;;;;;;16.15;12.63;;;23.20;93.70;;;;;;4824779;29;20113;-81
2023/09/17 04:22:48;;;;;;;15.95;12.75;;;23.20;93.80;;;;;;4825524;29;20113;-81
2023/09/17 04:25:15;;;;;;;18.60;12.57;;;23.20;93.80;;;;;;4818741;29;20109;-80
2023/09/17 04:27:41;;;;;;;16.17;12.45;;;23.20;93.70;;;;;;4834709;29;20062;-80
2023/09/17 04:30:08;;;;;;;17.33;12.63;;;23.20;93.70;;;;;;4832657;29;20542;-81
2023/09/17 04:32:39;;;;;;;16.38;11.38;;;23.20;93.70;;;;;;4832384;29;20038;-84
2023/09/17 04:35:12;;;;;;;15.70;12.65;;;23.20;93.80;;;;;;4835044;29;20038;-82
2023/09/17 04:37:39;;;;;;;17.08;12.60;;;23.20;93.80;;;;;;4828531;29;20113;-79
2023/09/17 04:40:08;;;;;;;16.02;12.18;;;23.20;93.80;;;;;;4831656;29;20109;-80
2023/09/17 04:42:36;;;;;;;18.73;12.93;;;23.20;93.80;;;;;;4823599;29;20037;-80
2023/09/17 04:45:04;;;;;;;17.33;13.52;;;23.20;93.80;;;;;;4825731;29;20035;-79
2023/09/17 04:47:34;;;;;;;17.27;13.02;;;23.20;93.80;;;;;;4833104;29;20540;-80
2023/09/17 04:50:00;;;;;;;;;;;23.20;93.90;;;;;;4830612;29;20041;-80
2023/09/17 04:52:25;;;;;;;18.60;13.85;;;23.20;93.90;;;;;;4834297;29;19920;-80
2023/09/17 04:54:51;;;;;;;18.05;14.27;;;23.20;93.90;;;;;;4827112;29;20065;-81
2023/09/17 04:57:17;;;;;;;15.43;12.45;;;23.20;93.90;;;;;;4830221;29;20073;-81
2023/09/17 04:59:42;;;;;;;15.75;12.38;;;23.10;93.90;;;;;;4828097;29;20034;-80
2023/09/17 05:02:08;;;;;;;16.02;12.68;;;23.20;93.90;;;;;;4832510;29;20062;-82
2023/09/17 05:04:34;;;;;;;17.52;13.45;;;23.20;94.00;;;;;;4830851;29;20041;-82
2023/09/17 05:06:59;;;;;;;18.27;13.18;;;23.20;94.00;;;;;;4831467;29;20039;-81
2023/09/17 05:09:26;;;;;;;20.45;15.00;;;23.20;94.00;;;;;;4842174;29;20121;-79
2023/09/17 05:11:52;;;;;;;18.83;13.05;;;23.20;94.10;;;;;;4823375;29;20034;-79
2023/09/17 05:14:18;;;;;;;16.35;12.48;;;23.10;94.10;;;;;;4827385;29;20049;-79
2023/09/17 05:16:43;;;;;;;17.50;13.40;;;23.10;94.20;;;;;;4828581;29;20735;-79
2023/09/17 05:19:09;;;;;;;18.58;12.38;;;23.10;94.20;;;;;;4832916;29;20444;-79
2023/09/17 05:21:35;;;;;;;18.35;13.63;;;23.10;94.30;;;;;;4828931;29;20116;-79
2023/09/17 05:24:01;;;;;;;16.63;13.23;;;23.10;94.30;;;;;;4828738;29;20092;-79
2023/09/17 05:26:27;;;;;;;18.73;13.80;;;23.10;94.30;;;;;;4824435;29;20045;-79
2023/09/17 05:28:52;;;;;;;18.20;13.55;;;23.10;94.30;;;;;;4821334;29;20490;-79
2023/09/17 05:31:18;;;;;;;16.60;12.82;;;23.10;94.40;;;;;;4824680;29;20067;-81
2023/09/17 05:33:45;;;;;;;14.80;11.98;;;23.20;94.40;;;;;;4826282;29;20038;-81
2023/09/17 05:36:47;;;;;;;17.08;12.60;;;23.20;94.50;;;;;;4829840;29;20043;-81
2023/09/17 05:39:15;;;;;;;17.13;12.32;;;23.20;94.40;;;;;;4837158;29;20063;-81
2023/09/17 05:41:42;;;;;;;17.17;12.82;;;23.30;94.50;;;;;;4837777;29;20468;-84
2023/09/17 05:44:09;;;;;;;19.42;13.10;;;23.30;94.40;;;;;;4825179;29;20027;-83
2023/09/17 05:46:35;;;;;;;15.15;12.30;;;23.30;94.30;;;;;;4819782;29;20041;-83
2023/09/17 05:49:02;;;;;;;13.93;11.23;;;23.30;94.10;;;;;;4825227;29;20034;-83
2023/09/17 05:51:27;;;;;;;16.83;13.27;;;23.30;94.20;;;;;;4826091;29;20037;-83
2023/09/17 05:53:54;;;;;;;17.70;13.65;;;23.30;94.20;;;;;;4837060;29;20038;-82
2023/09/17 05:56:19;;;;;;;16.70;12.65;;;23.30;94.10;;;;;;4821332;29;20037;-83
2023/09/17 05:58:45;;;;;;;14.90;11.82;;;23.20;94.10;;;;;;4837283;29;20030;-84
2023/09/17 06:01:11;;;;;;;17.23;12.35;;;23.20;94.10;;;;;;4823879;29;20183;-83
2023/09/17 06:03:36;;;;;;;17.70;13.10;;;23.20;94.10;;;;;;4835714;29;20057;-85
2023/09/17 06:06:03;;;;;;;18.27;12.98;;;23.20;94.10;;;;;;4839457;29;20030;-82
2023/09/17 06:08:29;;;;;;;16.75;12.35;;;23.30;94.10;;;;;;4843858;29;20029;-84
2023/09/17 06:10:55;;;;;;;16.40;12.07;;;23.20;94.10;;;;;;4839288;29;20031;-83
2023/09/17 06:13:21;;;;;;;18.25;13.45;;;23.30;94.10;;;;;;4814265;29;20395;-84
2023/09/17 06:15:47;;;;;;;19.15;11.95;;;23.30;94.10;;;;;;4816567;29;20487;-84
2023/09/17 06:18:12;;;;;;;16.40;13.10;;;23.40;94.10;;;;;;4835177;29;20546;-84
2023/09/17 06:20:41;;;;;;;15.70;12.20;;;23.30;94.10;;;;;;4851778;24;20179;-79
2023/09/17 06:23:07;;;;;;;16.63;10.63;;;23.30;94.10;;;;;;4825404;29;20380;-83
2023/09/17 06:25:33;;;;;;;17.08;13.35;;;23.30;94.20;;;;;;4823616;29;20102;-84
2023/09/17 06:27:58;;;;;;;21.45;11.93;;;23.30;94.20;;;;;;4824417;29;20468;-84
2023/09/17 06:30:24;;;;;;;22.55;17.13;;;23.40;94.20;;;;;;4824421;29;20546;-84
2023/09/17 06:32:50;;;;;;;17.13;12.27;;;23.40;94.20;;;;;;4824742;29;20433;-83
2023/09/17 06:35:16;;;;;;;17.42;13.90;;;23.40;94.20;;;;;;4825162;29;20034;-84
2023/09/17 06:37:42;;;;;;;18.92;14.55;;;23.30;94.20;;;;;;4823890;29;20038;-83
2023/09/17 06:40:10;;;;;;;14.48;11.95;;;23.30;94.20;;;;;;4824515;29;20483;-83
2023/09/17 06:42:36;;;;;;;25.30;18.70;;;23.30;94.20;;;;;;4824977;29;20399;-84
2023/09/17 06:45:02;;;;;;;27.77;19.50;;;23.20;94.30;;;;;;4824995;29;20027;-83
2023/09/17 06:47:28;;;;;;;16.60;11.75;;;23.20;94.40;;;;;;4824221;29;20042;-83
2023/09/17 06:49:54;;;;;;;24.08;18.70;;;23.20;94.50;;;;;;4824751;29;20030;-82
2023/09/17 06:52:19;;;;;;;15.27;11.50;;;23.20;94.60;;;;;;4824697;29;20041;-83
2023/09/17 06:54:45;;;;;;;15.05;10.52;;;23.20;94.50;;;;;;4808151;29;20027;-83
2023/09/17 06:57:11;;;;;;;21.15;16.00;;;23.30;94.50;;;;;;4824262;29;20092;-83
2023/09/17 06:59:36;;;;;;;13.77;11.48;;;23.30;94.40;;;;;;4824677;29;20365;-84
2023/09/17 07:02:02;;;;;;;16.00;12.05;;;23.30;94.50;;;;;;4824391;29;20022;-83
2023/09/17 07:04:28;;;;;;;23.48;16.33;;;23.40;94.50;;;;;;4824348;29;20038;-79
2023/09/17 07:06:54;;;;;;;12.98;10.13;;;23.40;94.60;;;;;;4808029;29;20074;-79
2023/09/17 07:09:20;;;;;;;13.45;9.48;;;23.40;94.70;;;;;;4823204;29;20690;-80
2023/09/17 07:11:45;;;;;;;9.75;8.75;;;23.40;94.60;;;;;;4808896;29;20060;-79
2023/09/17 07:14:11;;;;;;;11.25;8.90;;;23.50;94.50;;;;;;4825065;29;20030;-80
2023/09/17 07:16:39;;;;;;;13.18;9.73;;;23.60;94.50;;;;;;4824873;29;20380;-79
2023/09/17 07:19:05;;;;;;;10.52;8.45;;;23.60;94.40;;;;;;4824046;29;20030;-80
2023/09/17 07:21:31;;;;;;;12.65;10.02;;;23.70;94.40;;;;;;4824622;29;20380;-83
2023/09/17 07:23:57;;;;;;;10.93;9.38;;;23.80;94.30;;;;;;4824848;29;20033;-80
2023/09/17 07:26:23;;;;;;;9.95;8.02;;;23.80;94.00;;;;;;4824649;29;20105;-80
2023/09/17 07:28:49;;;;;;;11.35;8.05;;;23.80;94.00;;;;;;4824001;29;20110;-80
2023/09/17 07:31:15;;;;;;;10.65;8.70;;;23.90;94.10;;;;;;4823413;29;20077;-82
2023/09/17 07:33:42;;;;;;;11.02;8.52;;;24.00;94.00;;;;;;4824899;29;20096;-80
2023/09/17 07:36:09;;;;;;;11.35;9.00;;;24.00;93.90;;;;;;4824528;29;20417;-81
2023/09/17 07:38:35;;;;;;;8.63;7.25;;;24.10;93.90;;;;;;4823543;29;20077;-80
2023/09/17 07:41:01;;;;;;;7.45;6.10;;;24.10;93.80;;;;;;4824574;29;20642;-80
2023/09/17 07:43:26;;;;;;;9.13;6.50;;;24.20;93.80;;;;;;4824558;29;20035;-80
2023/09/17 07:45:52;;;;;;;9.45;6.05;;;24.20;93.80;;;;;;4824108;29;20034;-80
2023/09/17 07:48:20;;;;;;;6.40;5.38;;;24.30;93.80;;;;;;4823415;29;20105;-80
2023/09/17 07:50:55;;;;;;;6.35;4.72;;;24.40;93.70;;;;;;4824079;29;20041;-79
2023/09/17 07:53:20;;;;;;;12.15;5.38;;;24.60;93.60;;;;;;4824167;29;20396;-79
2023/09/17 07:55:46;;;;;;;9.38;4.65;;;24.70;93.50;;;;;;4824418;29;20459;-80
2023/09/17 07:58:12;;;;;;;4.63;4.22;;;24.80;93.30;;;;;;4817525;29;20468;-80
2023/09/17 08:00:37;;;;;;;5.20;3.58;;;24.90;93.10;;;;;;4812259;29;20374;-80
2023/09/17 08:03:03;;;;;;;5.70;3.60;;;25.00;93.20;;;;;;4824278;29;20460;-80
2023/09/17 08:05:29;;;;;;;4.68;2.65;;;25.10;93.00;;;;;;4807651;29;20129;-79
2023/09/17 08:07:55;;;;;;;5.15;3.22;;;25.20;92.90;;;;;;4823257;29;20113;-80
2023/09/17 08:10:20;;;;;;;3.97;3.47;;;25.30;92.90;;;;;;4824132;29;20039;-79
2023/09/17 08:12:47;;;;;;;4.32;3.38;;;25.30;92.80;;;;;;4824146;29;20031;-80
2023/09/17 08:15:14;;;;;;;7.72;3.80;;;25.40;92.70;;;;;;4824163;29;20079;-79
2023/09/17 08:17:40;;;;;;;6.00;3.00;;;25.40;92.70;;;;;;4822893;29;20042;-79
2023/09/17 08:20:09;;;;;;;3.85;3.03;;;25.50;92.80;;;;;;4805698;29;20030;-79
2023/09/17 08:22:35;;;;;;;23.60;5.40;;;25.60;92.70;;;;;;4820057;29;20046;-80
2023/09/17 08:25:01;;;;;;;22.20;5.28;;;25.80;92.80;;;;;;4823849;29;20590;-80
2023/09/17 08:27:27;;;;;;;19.95;3.97;;;25.90;92.60;;;;;;4824238;29;20038;-79
2023/09/17 08:29:53;;;;;;;6.40;3.20;;;26.10;92.50;;;;;;4823973;29;20027;-79
2023/09/17 08:32:18;;;;;;;3.25;2.65;;;26.20;92.40;;;;;;4823064;29;20038;-80
2023/09/17 08:34:44;;;;;;;3.78;2.70;;;26.30;92.10;;;;;;4823879;29;20036;-80
2023/09/17 08:37:10;;;;;;;6.00;2.60;;;26.40;92.10;;;;;;4824005;29;20421;-80
2023/09/17 08:39:35;;;;;;;5.07;3.47;;;26.60;91.90;;;;;;4827420;29;20038;-80
2023/09/17 08:42:01;;;;;;;3.53;2.95;;;26.70;91.20;;;;;;4826644;29;20399;-80
2023/09/17 08:44:32;;;;;;;4.32;3.58;;;26.70;91.30;;;;;;4810995;29;20030;-79
2023/09/17 08:46:59;;;;;;;4.68;3.72;;;26.80;91.40;;;;;;4827057;29;20118;-80
2023/09/17 08:49:25;;;;;;;5.07;3.30;;;26.80;91.10;;;;;;4827032;29;20495;-80
2023/09/17 08:51:55;;;;;;;5.63;2.95;;;26.70;91.00;;;;;;4827176;29;20113;-80
2023/09/17 08:54:28;;;;;;;8.90;3.70;;;26.70;90.90;;;;;;4826393;29;20086;-79
2023/09/17 08:56:56;;;;;;;3.63;2.38;;;26.70;90.80;;;;;;4826853;29;20074;-80
2023/09/17 08:59:28;;;;;;;6.18;2.53;;;26.70;90.80;;;;;;4827255;29;20443;-79
2023/09/17 09:01:56;;;;;;;8.60;2.50;;;26.60;90.80;;;;;;4826778;29;20038;-82
2023/09/17 09:04:23;;;;;;;5.28;3.30;;;26.60;90.70;;;;;;4826522;29;20388;-80
2023/09/17 09:06:50;;;;;;;3.20;2.83;;;26.60;90.60;;;;;;4825008;29;21263;-80
2023/09/17 09:09:16;;;;;;;3.92;2.53;;;26.50;90.80;;;;;;4826096;29;20468;-80
2023/09/17 09:11:42;;;;;;;4.20;3.42;;;26.40;90.90;;;;;;4826559;29;20494;-77
2023/09/17 09:14:08;;;;;;;7.63;3.30;;;26.30;91.00;;;;;;4826573;29;20045;-77
2023/09/17 09:16:37;;;;;;;4.97;4.10;;;26.30;91.00;;;;;;4826609;29;20046;-80
2023/09/17 09:19:04;;;;;;;3.05;2.58;;;26.20;90.80;;;;;;4824123;29;20018;-81
2023/09/17 09:21:29;;;;;;;4.70;3.40;;;26.20;91.00;;;;;;4826241;29;20050;-81
2023/09/17 09:23:57;;;;;;;2.80;2.50;;;26.10;91.00;;;;;;4826421;29;20042;-80
2023/09/17 09:26:38;;;;;;;5.78;2.60;;;26.10;91.00;;;;;;4826090;29;20037;-80
2023/09/17 09:29:06;;;;;;;4.80;2.58;;;26.10;91.00;;;;;;4824303;29;20414;-81
2023/09/17 09:31:33;;;;;;;3.45;3.05;;;26.00;91.00;;;;;;4825972;29;20048;-80
2023/09/17 09:34:00;;;;;;;4.85;2.85;;;26.10;91.00;;;;;;4809513;29;20034;-80
2023/09/17 09:36:31;;;;;;;3.65;3.17;;;26.00;91.10;;;;;;4824452;29;20109;-80
2023/09/17 09:38:57;;;;;;;3.38;2.53;;;26.00;91.20;;;;;;4818916;29;20129;-80
2023/09/17 09:41:29;;;;;;;4.70;2.75;;;26.00;91.20;;;;;;4824097;29;20105;-80
2023/09/17 09:43:56;;;;;;;3.85;3.10;;;26.00;91.20;;;;;;4824075;29;20033;-80
2023/09/17 09:46:24;;;;;;;3.15;2.75;;;25.90;91.20;;;;;;4813072;29;20097;-80
2023/09/17 09:48:51;;;;;;;3.95;3.15;;;26.00;91.30;;;;;;4822797;29;20478;-80
2023/09/17 09:51:18;;;;;;;3.80;2.95;;;26.00;91.30;;;;;;4821833;29;20076;-80
2023/09/17 09:53:44;;;;;;;3.10;2.72;;;26.00;91.30;;;;;;4821533;29;20030;-80
2023/09/17 09:56:11;;;;;;;4.10;3.20;;;26.00;91.40;;;;;;4820780;29;20031;-80
2023/09/17 09:58:39;;;;;;;3.20;2.90;;;26.00;91.40;;;;;;4822964;29;20029;-81
2023/09/17 10:01:05;;;;;;;3.30;3.00;;;26.00;91.40;;;;;;4825978;29;20030;-82
2023/09/17 10:03:32;;;;;;;3.20;2.90;;;26.00;91.40;;;;;;4824662;29;20491;-81
2023/09/17 10:06:07;;;;;;;5.00;2.95;;;26.10;91.40;;;;;;4825332;29;20042;-86
2023/09/17 10:08:39;;;;;;;3.33;2.72;;;26.10;91.40;;;;;;4824574;29;20041;-85
2023/09/17 10:11:09;;;;;;;3.17;2.88;;;26.20;91.50;;;;;;4815862;29;20022;-81
2023/09/17 10:13:36;;;;;;;3.10;2.78;;;26.40;91.40;;;;;;4808895;29;20120;-80
2023/09/17 10:16:03;;;;;;;4.43;2.38;;;26.60;91.40;;;;;;4803426;29;20080;-84
2023/09/17 10:18:35;;;;;;;2.80;2.60;;;26.70;91.20;;;;;;4801037;29;20133;-84
2023/09/17 10:21:02;;;;;;;3.03;2.72;;;26.90;91.00;;;;;;4806810;29;20047;-85
2023/09/17 10:23:35;;;;;;;4.38;2.83;;;26.90;90.70;;;;;;4814451;29;20019;-85
2023/09/17 10:26:03;;;;;;;3.10;2.80;;;26.90;90.40;;;;;;4809212;29;20042;-85
2023/09/17 10:28:31;;;;;;;3.95;2.72;;;26.90;90.40;;;;;;4820641;29;20046;-85
2023/09/17 10:31:08;;;;;;;3.95;2.60;;;26.90;90.40;;;;;;4822976;29;20038;-85
2023/09/17 10:33:36;;;;;;;2.95;2.65;;;27.00;90.30;;;;;;4805967;29;20133;-80
2023/09/17 10:36:05;;;;;;;5.47;2.90;;;27.00;90.20;;;;;;4824102;29;20043;-80
2023/09/17 10:38:34;;;;;;;3.43;2.90;;;27.10;90.20;;;;;;4797709;29;20098;-85
2023/09/17 10:41:02;;;;;;;5.17;2.53;;;27.00;90.00;;;;;;4815743;29;20682;-82
2023/09/17 10:43:28;;;;;;;4.03;3.13;;;27.10;90.10;;;;;;4800560;29;20038;-84
2023/09/17 10:45:56;;;;;;;3.90;2.95;;;27.10;90.00;;;;;;4824318;29;20090;-84
2023/09/17 10:48:24;;;;;;;4.03;2.55;;;27.10;90.00;;;;;;4822950;29;20034;-84
2023/09/17 10:50:50;;;;;;;4.20;2.33;;;27.30;90.10;;;;;;4825010;29;20159;-84
2023/09/17 10:53:16;;;;;;;2.78;2.58;;;27.40;89.50;;;;;;4823752;29;20030;-84
2023/09/17 10:55:52;;;;;;;4.57;2.97;;;27.50;88.50;;;;;;4824430;29;20037;-84
2023/09/17 10:58:28;;;;;;;2.90;2.60;;;27.50;88.30;;;;;;4822233;29;20034;-84
2023/09/17 11:00:57;;;;;;;2.90;2.60;;;27.50;88.30;;;;;;4816931;29;20028;-84
2023/09/17 11:03:25;;;;;;;3.78;2.50;;;27.60;88.70;;;;;;4824680;29;20101;-84
2023/09/17 11:05:55;;;;;;;5.03;2.72;;;27.60;88.80;;;;;;4824203;29;20034;-84
2023/09/17 11:08:22;;;;;;;3.78;2.92;;;27.70;88.50;;;;;;4823841;29;20091;-84
2023/09/17 11:10:48;;;;;;;3.67;2.55;;;27.70;88.20;;;;;;4820684;29;20491;-84
2023/09/17 11:13:14;;;;;;;4.88;3.08;;;27.70;87.80;;;;;;4822397;29;20041;-84
2023/09/17 11:15:42;;;;;;;3.15;2.30;;;27.70;88.00;;;;;;4795984;29;20471;-83
2023/09/17 11:18:09;;;;;;;3.38;2.67;;;27.80;87.80;;;;;;4819904;29;20035;-79
2023/09/17 11:20:40;;;;;;;13.43;2.60;;;27.80;88.00;;;;;;4802373;29;20035;-81
2023/09/17 11:23:06;;;;;;;2.80;2.50;;;27.90;88.30;;;;;;4815430;29;20088;-79
2023/09/17 11:25:36;;;;;;;3.55;2.63;;;28.10;88.50;;;;;;4811429;29;20046;-80
2023/09/17 11:28:12;;;;;;;3.60;2.70;;;28.20;88.00;;;;;;4808858;29;20065;-78
2023/09/17 11:31:03;;;;;;;2.40;2.20;;;28.40;87.90;;;;;;4818856;29;20043;-83
2023/09/17 11:33:35;;;;;;;2.78;2.33;;;28.30;87.50;;;;;;4814836;29;20106;-83
2023/09/17 11:36:01;;;;;;;4.18;2.30;;;28.20;88.00;;;;;;4809108;29;20035;-83
2023/09/17 11:38:29;;;;;;;3.50;2.40;;;28.20;87.70;;;;;;4819570;29;20510;-83
2023/09/17 11:41:09;;;;;;;3.28;2.50;;;28.10;87.60;;;;;;4812365;29;20046;-83
2023/09/17 11:43:42;;;;;;;3.33;2.42;;;28.20;87.80;;;;;;4819149;29;20057;-83
2023/09/17 11:46:09;;;;;;;2.95;2.60;;;28.20;87.70;;;;;;4811529;29;20484;-84
2023/09/17 11:48:37;;;;;;;4.25;2.45;;;28.20;87.50;;;;;;4816105;29;20411;-84
2023/09/17 11:51:26;;;;;;;2.58;2.38;;;28.10;87.50;;;;;;4794136;29;20396;-85
2023/09/17 11:53:55;;;;;;;2.60;2.38;;;28.10;87.80;;;;;;4809417;29;20397;-84
2023/09/17 11:56:21;;;;;;;5.97;2.50;;;28.10;87.70;;;;;;4812449;29;20030;-81
2023/09/17 11:58:57;;;;;;;4.15;2.58;;;28.30;88.10;;;;;;4805940;29;20042;-79
2023/09/17 12:01:23;;;;;;;7.15;2.72;;;28.50;87.50;;;;;;4810114;29;20047;-79
2023/09/17 12:03:49;;;;;;;4.13;2.55;;;28.60;87.10;;;;;;4808550;29;20147;-80
2023/09/17 12:06:19;;;;;;;4.40;2.90;;;28.60;87.20;;;;;;4817791;29;20501;-79
2023/09/17 12:08:46;;;;;;;2.80;2.60;;;28.70;86.60;;;;;;4821105;29;20031;-78
2023/09/17 12:11:30;;;;;;;3.33;2.65;;;28.60;86.50;;;;;;4814910;29;20042;-79
2023/09/17 12:13:59;;;;;;;3.25;2.30;;;28.70;87.00;;;;;;4811859;29;20484;-79
2023/09/17 12:16:27;;;;;;;3.22;2.45;;;28.80;86.70;;;;;;4825353;29;20041;-78
2023/09/17 12:18:55;;;;;;;2.50;2.30;;;29.00;86.50;;;;;;4810966;29;20030;-80
2023/09/17 12:21:40;;;;;;;3.78;2.75;;;29.00;86.50;;;;;;4825596;29;20066;-79
2023/09/17 12:24:08;;;;;;;16.98;2.95;;;29.10;86.20;;;;;;4820776;29;20036;-79
2023/09/17 12:29:43;;;;;;;4.65;2.92;;;29.00;86.40;;;;;;4809113;29;20127;-79
2023/09/17 12:32:10;;;;;;;2.42;2.22;;;29.00;85.90;;;;;;4803388;29;20573;-90
2023/09/17 12:34:37;;;;;;;3.30;2.60;;;29.10;86.20;;;;;;4809401;29;20184;-88
2023/09/17 12:37:05;;;;;;;3.33;2.55;;;29.20;86.10;;;;;;4811327;29;20054;-86
2023/09/17 12:39:31;;;;;;;4.13;2.60;;;29.30;85.70;;;;;;4821755;29;20109;-77
2023/09/17 12:41:56;;;;;;;3.05;2.55;;;29.30;85.00;;;;;;4822322;29;20480;-79